createdAt,value
2018-03-11T00:00:54.929Z,28.40
2018-03-11T00:03:22.580Z,25.93
2018-03-11T00:05:50.082Z,28.10
2018-03-11T00:08:17.683Z,29.37
2018-03-11T00:10:45.200Z,25.53
2018-03-11T00:13:12.764Z,26.57
2018-03-11T00:15:40.328Z,26.17
2018-03-11T00:18:07.852Z,25.67
2018-03-11T00:20:35.379Z,25.80
2018-03-11T00:23:02.934Z,24.77
2018-03-11T00:25:30.425Z,24.70
2018-03-11T00:27:57.962Z,24.73
2018-03-11T00:30:25.547Z,25.60
2018-03-11T00:32:53.051Z,25.47
2018-03-11T00:35:20.702Z,24.90
2018-03-11T00:37:48.241Z,28.20
2018-03-11T00:40:15.752Z,26.80
2018-03-11T00:42:43.287Z,29.73
2018-03-11T00:45:10.815Z,24.53
2018-03-11T00:47:38.323Z,25.63
2018-03-11T00:50:05.834Z,25.83
2018-03-11T00:52:33.376Z,24.90
2018-03-11T00:55:00.899Z,23.50
2018-03-11T00:57:29.252Z,22.07
2018-03-11T00:59:56.792Z,29.07
2018-03-11T01:02:24.362Z,28.03
2018-03-11T01:04:51.940Z,24.30
2018-03-11T01:07:19.540Z,27.43
2018-03-11T01:09:47.326Z,26.37
2018-03-11T01:12:14.840Z,27.97
2018-03-11T01:14:42.400Z,22.70
2018-03-11T01:17:09.931Z,24.10
2018-03-11T01:19:37.455Z,26.00
2018-03-11T01:22:05.444Z,28.70
2018-03-11T01:24:33.024Z,27.50
2018-03-11T01:27:00.528Z,30.33
2018-03-11T01:29:28.142Z,25.63
2018-03-11T01:31:55.752Z,26.80
2018-03-11T01:34:23.272Z,30.07
2018-03-11T01:36:51.138Z,25.63
2018-03-11T01:39:18.671Z,32.77
2018-03-11T01:41:46.169Z,24.70
2018-03-11T01:44:13.705Z,27.87
2018-03-11T01:46:41.308Z,26.13
2018-03-11T01:49:08.868Z,24.53
2018-03-11T01:51:36.422Z,25.67
2018-03-11T01:54:03.949Z,28.40
2018-03-11T01:56:31.811Z,30.90
2018-03-11T01:58:59.354Z,25.47
2018-03-11T02:01:26.931Z,27.17
2018-03-11T02:03:54.431Z,29.03
2018-03-11T02:06:22.001Z,26.00
2018-03-11T02:08:49.558Z,25.33
2018-03-11T02:11:17.066Z,25.53
2018-03-11T02:13:44.656Z,25.30
2018-03-11T02:16:12.188Z,28.80
2018-03-11T02:18:39.704Z,26.00
2018-03-11T02:21:17.268Z,27.40
2018-03-11T02:23:44.760Z,32.37
2018-03-11T02:26:12.254Z,23.80
2018-03-11T02:28:39.966Z,27.27
2018-03-11T02:31:07.510Z,25.40
2018-03-11T02:33:35.030Z,28.10
2018-03-11T02:36:02.566Z,34.80
2018-03-11T02:38:30.093Z,29.27
2018-03-11T02:40:58.034Z,35.50
2018-03-11T02:43:25.554Z,35.80
2018-03-11T02:45:53.096Z,27.23
2018-03-11T02:48:20.603Z,25.50
2018-03-11T02:50:48.296Z,24.50
2018-03-11T02:53:15.874Z,27.53
2018-03-11T02:55:43.546Z,28.37
2018-03-11T02:58:11.177Z,26.17
2018-03-11T03:00:39.031Z,26.63
2018-03-11T03:03:06.601Z,25.50
2018-03-11T03:05:34.164Z,25.07
2018-03-11T03:08:01.658Z,26.53
2018-03-11T03:10:29.199Z,25.97
2018-03-11T03:12:56.809Z,28.07
2018-03-11T03:15:24.392Z,25.00
2018-03-11T03:17:51.903Z,26.53
2018-03-11T03:20:19.413Z,27.53
2018-03-11T03:22:46.935Z,27.83
2018-03-11T03:25:14.504Z,32.90
2018-03-11T03:27:42.040Z,26.07
2018-03-11T03:30:09.860Z,28.90
2018-03-11T03:32:37.405Z,23.50
2018-03-11T03:35:04.964Z,28.10
2018-03-11T03:37:32.519Z,36.83
2018-03-11T03:40:00.071Z,31.80
2018-03-11T03:42:27.605Z,25.47
2018-03-11T03:44:55.428Z,25.87
2018-03-11T03:47:22.957Z,26.90
2018-03-11T03:49:50.518Z,25.13
2018-03-11T03:52:18.096Z,32.03
2018-03-11T03:54:45.593Z,30.03
2018-03-11T03:57:13.131Z,26.80
2018-03-11T03:59:40.656Z,27.53
2018-03-11T04:02:08.185Z,28.10
2018-03-11T04:04:35.674Z,27.03
2018-03-11T04:07:03.258Z,31.00
2018-03-11T04:09:30.784Z,28.03
2018-03-11T04:11:58.533Z,32.77
2018-03-11T04:14:26.058Z,26.70
2018-03-11T04:16:53.607Z,26.93
2018-03-11T04:19:21.116Z,27.60
2018-03-11T04:21:48.939Z,33.23
2018-03-11T04:24:16.538Z,30.37
2018-03-11T04:26:44.382Z,27.83
2018-03-11T04:29:12.240Z,33.33
2018-03-11T04:31:39.775Z,31.03
2018-03-11T04:34:08.596Z,27.87
2018-03-11T04:36:36.360Z,28.80
2018-03-11T04:39:04.220Z,27.10
2018-03-11T04:41:31.752Z,27.57
2018-03-11T04:43:59.357Z,28.37
2018-03-11T04:46:26.949Z,27.53
2018-03-11T04:48:54.796Z,27.43
2018-03-11T04:51:22.350Z,26.80
2018-03-11T04:53:49.858Z,50.10
2018-03-11T04:56:17.401Z,57.20
2018-03-11T04:58:44.928Z,42.50
2018-03-11T05:01:12.618Z,34.83
2018-03-11T05:03:40.146Z,30.57
2018-03-11T05:06:07.714Z,28.53
2018-03-11T05:08:35.244Z,30.30
2018-03-11T05:11:02.794Z,24.70
2018-03-11T05:13:30.336Z,27.40
2018-03-11T05:15:57.944Z,28.67
2018-03-11T05:18:25.469Z,29.87
2018-03-11T05:20:53.088Z,29.07
2018-03-11T05:23:20.932Z,28.87
2018-03-11T05:25:48.442Z,28.70
2018-03-11T05:28:16.028Z,29.03
2018-03-11T05:30:43.564Z,28.17
2018-03-11T05:33:11.081Z,30.97
2018-03-11T05:35:38.657Z,29.10
2018-03-11T05:38:06.179Z,25.50
2018-03-11T05:40:33.676Z,27.63
2018-03-11T05:43:01.194Z,33.13
2018-03-11T05:45:28.985Z,30.00
2018-03-11T05:47:56.771Z,31.27
2018-03-11T05:50:24.266Z,29.87
2018-03-11T05:52:51.804Z,31.13
2018-03-11T05:55:19.634Z,28.50
2018-03-11T05:57:47.230Z,28.63
2018-03-11T06:00:14.742Z,26.30
2018-03-11T06:02:42.354Z,28.10
2018-03-11T06:05:10.306Z,27.30
2018-03-11T06:07:37.887Z,35.13
2018-03-11T06:10:05.523Z,28.30
2018-03-11T06:12:33.052Z,28.87
2018-03-11T06:15:00.843Z,27.83
2018-03-11T06:17:28.475Z,31.70
2018-03-11T06:19:56.063Z,28.27
2018-03-11T06:22:23.622Z,29.20
2018-03-11T06:24:51.390Z,30.53
2018-03-11T06:27:18.932Z,27.73
2018-03-11T06:29:46.485Z,29.53
2018-03-11T06:32:13.999Z,28.10
2018-03-11T06:34:41.496Z,33.57
2018-03-11T06:37:09.043Z,32.57
2018-03-11T06:39:36.546Z,32.33
2018-03-11T06:42:07.911Z,30.77
2018-03-11T06:44:35.449Z,32.13
2018-03-11T06:47:02.984Z,30.10
2018-03-11T06:49:30.805Z,32.27
2018-03-11T06:51:58.333Z,35.47
2018-03-11T06:54:25.851Z,36.63
2018-03-11T06:56:53.350Z,30.63
2018-03-11T06:59:20.867Z,32.73
2018-03-11T07:01:48.689Z,32.70
2018-03-11T07:04:16.282Z,32.00
2018-03-11T07:06:44.111Z,31.67
2018-03-11T07:09:12.318Z,30.07
2018-03-11T07:11:39.824Z,30.73
2018-03-11T07:14:08.246Z,29.53
2018-03-11T07:16:35.874Z,31.77
2018-03-11T07:19:03.411Z,32.23
2018-03-11T07:21:30.935Z,31.00
2018-03-11T07:23:58.480Z,31.27
2018-03-11T07:26:26.026Z,30.90
2018-03-11T07:28:53.794Z,32.63
2018-03-11T07:31:21.311Z,31.27
2018-03-11T07:33:48.832Z,34.77
2018-03-11T07:36:16.353Z,32.97
2018-03-11T07:38:43.889Z,38.60
2018-03-11T07:41:11.398Z,30.30
2018-03-11T07:43:38.950Z,31.97
2018-03-11T07:46:06.636Z,31.27
2018-03-11T07:48:34.164Z,37.63
2018-03-11T07:51:01.665Z,29.50
2018-03-11T07:53:29.256Z,37.67
2018-03-11T07:55:56.770Z,32.87
2018-03-11T07:58:24.332Z,32.33
2018-03-11T08:00:51.877Z,32.10
2018-03-11T08:03:19.416Z,33.53
2018-03-11T08:05:47.277Z,35.40
2018-03-11T08:08:14.870Z,30.77
2018-03-11T08:10:42.379Z,32.37
2018-03-11T08:13:10.104Z,31.47
2018-03-11T08:15:37.690Z,41.00
2018-03-11T08:18:06.189Z,32.20
2018-03-11T08:20:33.809Z,31.10
2018-03-11T08:23:02.396Z,32.87
2018-03-11T08:25:29.906Z,37.67
2018-03-11T08:27:57.431Z,33.10
2018-03-11T08:30:24.992Z,36.53
2018-03-11T08:32:52.565Z,36.10
2018-03-11T08:35:20.132Z,31.43
2018-03-11T08:37:48.304Z,41.13
2018-03-11T08:40:16.068Z,33.93
2018-03-11T08:42:44.007Z,31.80
2018-03-11T08:45:11.542Z,34.43
2018-03-11T08:47:39.044Z,30.83
2018-03-11T08:50:06.597Z,45.93
2018-03-11T08:52:34.455Z,33.27
2018-03-11T08:55:01.997Z,34.60
2018-03-11T08:57:29.624Z,31.37
2018-03-11T08:59:57.180Z,33.10
2018-03-11T09:02:25.103Z,33.73
2018-03-11T09:04:52.673Z,36.53
2018-03-11T09:07:20.345Z,46.33
2018-03-11T09:09:48.017Z,36.63
2018-03-11T09:12:15.710Z,42.03
2018-03-11T09:14:43.249Z,36.10
2018-03-11T09:17:13.192Z,38.53
2018-03-11T09:19:41.418Z,36.50
2018-03-11T09:22:08.964Z,38.53
2018-03-11T09:24:36.506Z,35.40
2018-03-11T09:27:04.049Z,36.70
2018-03-11T09:29:31.645Z,32.40
2018-03-11T09:31:59.176Z,36.60
2018-03-11T09:34:26.737Z,33.73
2018-03-11T09:36:54.377Z,32.10
2018-03-11T09:39:22.201Z,34.63
2018-03-11T09:41:49.789Z,32.23
2018-03-11T09:44:17.316Z,36.63
2018-03-11T09:46:44.894Z,32.23
2018-03-11T09:49:12.449Z,31.90
2018-03-11T09:51:40.010Z,28.47
2018-03-11T09:54:09.459Z,32.73
2018-03-11T09:56:37.005Z,29.13
2018-03-11T09:59:04.592Z,33.33
2018-03-11T10:01:32.219Z,31.10
2018-03-11T10:03:59.848Z,31.43
2018-03-11T10:06:27.364Z,31.47
2018-03-11T10:08:55.182Z,32.77
2018-03-11T10:11:22.988Z,30.67
2018-03-11T10:13:51.212Z,29.50
2018-03-11T10:16:18.857Z,27.60
2018-03-11T10:18:46.471Z,26.10
2018-03-11T10:21:14.028Z,26.47
2018-03-11T10:23:41.650Z,26.70
2018-03-11T10:26:09.773Z,25.30
2018-03-11T10:28:37.286Z,21.90
2018-03-11T10:31:04.824Z,26.47
2018-03-11T10:33:32.401Z,20.87
2018-03-11T10:36:00.314Z,23.10
2018-03-11T10:38:27.896Z,21.93
2018-03-11T10:40:55.428Z,20.30
2018-03-11T10:43:23.013Z,20.73
2018-03-11T10:45:51.365Z,21.60
2018-03-11T10:48:19.034Z,21.13
2018-03-11T10:50:46.587Z,18.57
2018-03-11T10:53:14.172Z,30.67
2018-03-11T10:55:41.709Z,17.90
2018-03-11T10:58:09.309Z,17.00
2018-03-11T11:00:43.416Z,16.97
2018-03-11T11:06:12.187Z,14.83
2018-03-11T11:08:39.717Z,20.10
2018-03-11T11:11:07.619Z,19.23
2018-03-11T11:13:35.434Z,17.53
2018-03-11T11:16:02.959Z,25.30
2018-03-11T11:18:30.553Z,20.33
2018-03-11T11:20:58.117Z,19.10
2018-03-11T11:23:25.627Z,20.83
2018-03-11T11:25:53.175Z,23.80
2018-03-11T11:28:20.703Z,21.07
2018-03-11T11:30:48.226Z,25.30
2018-03-11T11:33:16.074Z,23.50
2018-03-11T11:35:43.641Z,23.40
2018-03-11T11:38:11.265Z,25.40
2018-03-11T11:40:38.960Z,25.03
2018-03-11T11:43:06.522Z,22.33
2018-03-11T11:45:34.162Z,30.80
2018-03-11T11:48:01.703Z,29.57
2018-03-11T11:50:29.736Z,28.00
2018-03-11T11:52:57.292Z,24.73
2018-03-11T11:55:25.136Z,23.40
2018-03-11T11:57:53.008Z,27.40
2018-03-11T12:00:20.536Z,28.60
2018-03-11T12:02:48.065Z,34.80
2018-03-11T12:05:15.592Z,30.50
2018-03-11T12:07:43.109Z,27.37
2018-03-11T12:10:11.008Z,23.90
2018-03-11T12:12:38.545Z,29.23
2018-03-11T12:15:06.049Z,22.37
2018-03-11T12:17:33.603Z,26.10
2018-03-11T12:20:01.130Z,25.57
2018-03-11T12:22:28.673Z,28.17
2018-03-11T12:24:56.237Z,21.73
2018-03-11T12:27:23.815Z,22.50
2018-03-11T12:29:51.341Z,22.17
2018-03-11T12:32:18.880Z,19.40
2018-03-11T12:34:46.396Z,18.63
2018-03-11T12:37:13.932Z,16.13
2018-03-11T12:39:41.459Z,14.27
2018-03-11T12:42:09.016Z,16.43
2018-03-11T12:44:36.775Z,15.20
2018-03-11T12:47:04.389Z,16.33
2018-03-11T12:49:31.917Z,15.83
2018-03-11T12:51:59.491Z,15.20
2018-03-11T12:54:27.065Z,26.80
2018-03-11T12:56:54.873Z,17.07
2018-03-11T12:59:22.657Z,18.10
2018-03-11T13:01:50.223Z,15.70
2018-03-11T13:04:17.742Z,15.73
2018-03-11T13:06:45.284Z,17.10
2018-03-11T13:09:12.813Z,18.47
2018-03-11T13:11:40.384Z,16.77
2018-03-11T13:14:07.934Z,15.77
2018-03-11T13:16:35.449Z,17.30
2018-03-11T13:19:02.981Z,16.80
2018-03-11T13:21:30.501Z,17.00
2018-03-11T13:23:58.373Z,17.37
2018-03-11T13:26:26.705Z,13.77
2018-03-11T13:28:54.264Z,15.40
2018-03-11T13:31:21.857Z,16.90
2018-03-11T13:34:01.205Z,17.80
2018-03-11T13:36:29.061Z,17.83
2018-03-11T13:39:08.446Z,17.27
2018-03-11T13:41:35.964Z,18.20
2018-03-11T13:44:03.585Z,18.70
2018-03-11T13:49:26.008Z,16.47
2018-03-11T13:54:56.267Z,17.30
2018-03-11T14:00:34.975Z,18.77
2018-03-11T14:03:02.540Z,23.50
2018-03-11T14:05:30.124Z,21.20
2018-03-11T14:07:57.692Z,19.10
2018-03-11T14:10:25.222Z,16.30
2018-03-11T14:12:52.739Z,17.87
2018-03-11T14:15:20.282Z,17.13
2018-03-11T14:17:47.826Z,18.20
2018-03-11T14:20:15.405Z,15.50
2018-03-11T14:22:42.938Z,17.00
2018-03-11T14:25:10.479Z,17.63
2018-03-11T14:27:38.661Z,17.50
2018-03-11T14:30:06.260Z,18.93
2018-03-11T14:32:34.073Z,15.23
2018-03-11T14:35:01.700Z,18.43
2018-03-11T14:37:29.281Z,21.10
2018-03-11T14:39:56.864Z,16.10
2018-03-11T14:42:24.398Z,18.47
2018-03-11T14:44:51.926Z,16.10
2018-03-11T14:47:19.554Z,15.50
2018-03-11T14:49:47.135Z,16.90
2018-03-11T14:52:14.650Z,15.00
2018-03-11T14:54:42.196Z,16.50
2018-03-11T14:57:09.772Z,17.10
2018-03-11T14:59:37.395Z,15.90
2018-03-11T15:02:04.919Z,16.40
2018-03-11T15:04:33.202Z,17.13
2018-03-11T15:07:00.767Z,16.70
2018-03-11T15:09:28.339Z,15.67
2018-03-11T15:11:55.855Z,16.07
2018-03-11T15:14:23.661Z,13.80
2018-03-11T15:16:51.169Z,25.67
2018-03-11T15:19:18.935Z,14.37
2018-03-11T15:21:46.482Z,16.93
2018-03-11T15:24:14.023Z,21.83
2018-03-11T15:26:41.566Z,14.77
2018-03-11T15:29:09.135Z,15.00
2018-03-11T15:31:37.513Z,14.53
2018-03-11T15:34:05.123Z,16.13
2018-03-11T15:36:32.680Z,18.23
2018-03-11T15:39:00.465Z,15.70
2018-03-11T15:41:28.040Z,15.67
2018-03-11T15:43:55.617Z,17.60
2018-03-11T15:46:23.456Z,16.77
2018-03-11T15:48:51.228Z,17.33
2018-03-11T15:51:18.937Z,17.33
2018-03-11T15:53:46.479Z,16.27
2018-03-11T15:56:14.041Z,20.40
2018-03-11T15:58:41.870Z,18.40
2018-03-11T16:01:09.395Z,16.60
2018-03-11T16:03:36.966Z,19.60
2018-03-11T16:06:04.560Z,16.90
2018-03-11T16:08:32.071Z,25.43
2018-03-11T16:10:59.705Z,18.27
2018-03-11T16:13:27.229Z,19.73
2018-03-11T16:15:54.856Z,20.10
2018-03-11T16:18:22.377Z,18.13
2018-03-11T16:20:50.146Z,22.30
2018-03-11T16:23:17.675Z,18.23
2018-03-11T16:25:45.217Z,19.80
2018-03-11T16:28:12.808Z,18.27
2018-03-11T16:30:40.815Z,19.83
2018-03-11T16:33:08.656Z,20.20
2018-03-11T16:35:36.202Z,19.40
2018-03-11T16:38:03.741Z,17.13
2018-03-11T16:40:31.315Z,19.70
2018-03-11T16:43:00.090Z,31.70
2018-03-11T16:45:27.674Z,22.40
2018-03-11T16:47:55.973Z,18.77
2018-03-11T16:50:24.295Z,18.87
2018-03-11T16:52:51.843Z,22.80
2018-03-11T16:55:19.537Z,59.47
2018-03-11T16:57:47.114Z,20.80
2018-03-11T17:00:14.755Z,18.50
2018-03-11T17:02:42.358Z,16.50
2018-03-11T17:05:10.034Z,18.97
2018-03-11T17:07:37.561Z,19.33
2018-03-11T17:10:05.196Z,17.97
2018-03-11T17:12:32.772Z,21.00
2018-03-11T17:15:00.305Z,19.90
2018-03-11T17:17:27.825Z,19.90
2018-03-11T17:19:55.392Z,18.67
2018-03-11T17:22:23.005Z,16.47
2018-03-11T17:24:50.578Z,19.00
2018-03-11T17:27:18.119Z,19.27
2018-03-11T17:29:45.664Z,19.27
2018-03-11T17:32:13.237Z,18.97
2018-03-11T17:34:40.745Z,23.10
2018-03-11T17:37:08.300Z,24.17
2018-03-11T17:39:36.544Z,20.13
2018-03-11T17:42:04.146Z,17.97
2018-03-11T17:44:31.669Z,20.07
2018-03-11T17:46:59.578Z,20.83
2018-03-11T17:49:27.369Z,20.87
2018-03-11T17:51:54.997Z,19.70
2018-03-11T17:54:22.534Z,25.37
2018-03-11T17:56:50.094Z,21.00
2018-03-11T17:59:17.617Z,20.10
2018-03-11T18:01:45.181Z,42.30
2018-03-11T18:04:12.710Z,18.93
2018-03-11T18:06:40.274Z,19.50
2018-03-11T18:09:07.782Z,23.97
2018-03-11T18:11:35.681Z,21.70
2018-03-11T18:14:03.563Z,21.77
2018-03-11T18:16:31.094Z,21.60
2018-03-11T18:18:58.629Z,58.30
2018-03-11T18:21:26.289Z,57.60
2018-03-11T18:23:53.807Z,35.47
2018-03-11T18:26:21.619Z,28.13
2018-03-11T18:28:49.523Z,27.70
2018-03-11T18:31:17.064Z,22.50
2018-03-11T18:33:44.592Z,27.77
2018-03-11T18:36:12.153Z,23.67
2018-03-11T18:38:39.728Z,19.40
2018-03-11T18:41:07.364Z,23.67
2018-03-11T18:43:35.290Z,26.33
2018-03-11T18:46:02.954Z,25.03
2018-03-11T18:48:30.974Z,21.20
2018-03-11T18:50:58.584Z,26.27
2018-03-11T18:53:26.202Z,22.70
2018-03-11T18:55:53.779Z,25.83
2018-03-11T18:58:21.446Z,27.83
2018-03-11T19:00:49.253Z,29.87
2018-03-11T19:03:16.817Z,22.93
2018-03-11T19:05:44.350Z,20.03
2018-03-11T19:08:11.937Z,28.83
2018-03-11T19:10:39.454Z,23.63
2018-03-11T19:13:07.030Z,23.13
2018-03-11T19:15:34.550Z,22.20
2018-03-11T19:18:02.104Z,29.83
2018-03-11T19:20:29.657Z,23.37
2018-03-11T19:22:57.201Z,35.57
2018-03-11T19:25:24.880Z,30.67
2018-03-11T19:27:52.419Z,25.40
2018-03-11T19:30:19.928Z,31.50
2018-03-11T19:32:47.486Z,23.80
2018-03-11T19:35:15.072Z,26.63
2018-03-11T19:37:42.753Z,22.53
2018-03-11T19:40:10.310Z,35.33
2018-03-11T19:42:38.005Z,32.50
2018-03-11T19:45:05.555Z,24.93
2018-03-11T19:47:34.252Z,23.00
2018-03-11T19:50:01.776Z,31.53
2018-03-11T19:52:29.293Z,25.20
2018-03-11T19:54:56.808Z,30.00
2018-03-11T19:57:24.368Z,23.37
2018-03-11T19:59:51.890Z,32.40
2018-03-11T20:02:19.511Z,30.13
2018-03-11T20:04:47.037Z,26.10
2018-03-11T20:07:14.632Z,31.87
2018-03-11T20:09:42.159Z,30.77
2018-03-11T20:12:09.705Z,26.50
2018-03-11T20:14:37.240Z,30.10
2018-03-11T20:17:04.761Z,25.33
2018-03-11T20:19:32.305Z,24.60
2018-03-11T20:21:59.845Z,28.40
2018-03-11T20:24:27.558Z,23.93
2018-03-11T20:26:56.144Z,27.53
2018-03-11T20:29:23.658Z,25.17
2018-03-11T20:31:51.254Z,27.57
2018-03-11T20:34:18.777Z,28.57
2018-03-11T20:36:46.314Z,22.00
2018-03-11T20:39:14.239Z,27.27
2018-03-11T20:41:41.895Z,26.43
2018-03-11T20:44:09.423Z,28.80
2018-03-11T20:46:36.984Z,27.63
2018-03-11T20:49:05.284Z,26.57
2018-03-11T20:51:32.792Z,26.57
2018-03-11T20:54:00.447Z,25.83
2018-03-11T20:56:27.965Z,28.20
2018-03-11T20:58:55.745Z,30.50
2018-03-11T21:01:23.245Z,27.43
2018-03-11T21:03:51.110Z,26.17
2018-03-11T21:06:19.516Z,26.20
2018-03-11T21:08:47.130Z,27.83
2018-03-11T21:11:14.741Z,29.27
2018-03-11T21:13:42.988Z,28.30
2018-03-11T21:16:10.552Z,29.80
2018-03-11T21:18:38.484Z,23.30
2018-03-11T21:21:06.045Z,24.97
2018-03-11T21:23:33.558Z,24.47
2018-03-11T21:26:01.194Z,26.50
2018-03-11T21:28:28.746Z,27.97
2018-03-11T21:30:56.712Z,25.90
2018-03-11T21:33:25.096Z,29.00
2018-03-11T21:35:52.945Z,25.27
2018-03-11T21:38:20.514Z,25.40
2018-03-11T21:40:48.190Z,27.37
2018-03-11T21:46:46.253Z,26.07
2018-03-11T21:49:13.855Z,25.23
2018-03-11T21:51:41.425Z,34.10
2018-03-11T21:54:09.255Z,26.70
2018-03-11T21:56:36.787Z,26.77
2018-03-11T21:59:04.313Z,35.27
2018-03-11T22:01:31.842Z,32.93
2018-03-11T22:04:00.513Z,25.30
2018-03-11T22:06:28.091Z,30.90
2018-03-11T22:08:56.056Z,23.97
2018-03-11T22:11:23.968Z,27.37
2018-03-11T22:13:51.788Z,76.47
2018-03-11T22:16:19.322Z,40.53
2018-03-11T22:18:47.889Z,31.00
2018-03-11T22:21:15.494Z,31.53
2018-03-11T22:23:43.105Z,31.73
2018-03-11T22:26:10.626Z,32.70
2018-03-11T22:28:38.162Z,27.33
2018-03-11T22:31:06.386Z,25.33
2018-03-11T22:33:33.942Z,29.13
2018-03-11T22:36:01.457Z,30.37
2018-03-11T22:38:29.006Z,27.80
2018-03-11T22:40:56.524Z,31.70
2018-03-11T22:43:24.077Z,26.17
2018-03-11T22:45:52.285Z,26.20
2018-03-11T22:48:19.828Z,36.43
2018-03-11T22:50:47.419Z,30.43
2018-03-11T22:53:14.947Z,25.77
2018-03-11T22:55:42.452Z,28.97
2018-03-11T22:58:10.027Z,30.20
2018-03-11T23:00:37.567Z,33.33
2018-03-11T23:03:05.100Z,28.60
2018-03-11T23:05:32.634Z,30.47
2018-03-11T23:08:00.486Z,28.10
2018-03-11T23:10:28.013Z,26.47
2018-03-11T23:12:55.539Z,25.83
2018-03-11T23:15:23.036Z,30.33
2018-03-11T23:17:50.580Z,28.87
2018-03-11T23:20:18.306Z,31.57
2018-03-11T23:22:45.838Z,24.37
2018-03-11T23:25:13.363Z,26.13
2018-03-11T23:27:40.925Z,27.40
2018-03-11T23:30:08.578Z,35.60
2018-03-11T23:32:36.094Z,30.00
2018-03-11T23:35:03.632Z,31.50
2018-03-11T23:37:31.162Z,25.97
2018-03-11T23:39:58.671Z,27.83
2018-03-11T23:42:26.175Z,28.17
2018-03-11T23:44:53.697Z,28.63
2018-03-11T23:47:21.244Z,27.40
2018-03-11T23:49:48.785Z,32.00
2018-03-11T23:52:16.286Z,39.73
2018-03-11T23:54:43.822Z,29.83
2018-03-11T23:57:11.338Z,34.70
2018-03-11T23:59:38.892Z,28.20
